Terminal Aerodrome Forecast
Issued by NWS

Home | Current Version | Previous Version | Text Only | Print | Product List | Glossary On
Versions: 1 2 3 4 5 6 7 8 9 10 11 12 13 14 15 16 17 18 19 20 21 22 23 24 25 26 27 28 29 30 31 32 33 34 35 36 37 38 39 40 41 42 43
000
FTUS43 KGRB 250100 AAA
TAFRHI
TAF AMD
KRHI 250138Z 2502/2524 34006KT P6SM SCT008 OVC015
      TEMPO 2502/2506 4SM -SHSN BKN008
     FM250600 27008KT P6SM -SN BKN012 OVC020
     FM251500 23007KT P6SM OVC022
     FM252200 19004KT P6SM BKN025 OVC080=

USA.gov is the U.S. government's official web portal to all federal, state and local government web resources and services.